createdAt,value
2023-03-29T00:01:35.264Z,83.66
2023-03-29T00:03:44.375Z,83.35
2023-03-29T00:05:48.036Z,83.75
2023-03-29T00:07:53.953Z,83.15
2023-03-29T00:09:58.651Z,83.60
2023-03-29T00:12:02.721Z,83.36
2023-03-29T00:14:06.615Z,83.23
2023-03-29T00:16:10.615Z,83.19
2023-03-29T00:18:14.007Z,83.45
2023-03-29T00:20:17.819Z,83.46
2023-03-29T00:22:21.303Z,83.52
2023-03-29T00:24:24.585Z,83.34
2023-03-29T00:26:29.236Z,83.08
2023-03-29T00:28:32.704Z,83.33
2023-03-29T00:30:36.078Z,83.68
2023-03-29T00:32:39.374Z,83.53
2023-03-29T00:34:46.072Z,83.26
2023-03-29T00:36:50.807Z,83.47
2023-03-29T00:38:56.648Z,83.39
2023-03-29T00:41:01.521Z,83.22
2023-03-29T00:43:09.859Z,83.33
2023-03-29T00:45:20.825Z,83.09
2023-03-29T00:47:28.820Z,83.20
2023-03-29T00:49:32.511Z,83.35
2023-03-29T00:51:39.347Z,82.90
2023-03-29T00:53:48.368Z,82.90
2023-03-29T00:55:56.798Z,83.42
2023-03-29T00:58:02.624Z,83.39
2023-03-29T01:00:10.042Z,83.25
2023-03-29T01:02:14.989Z,83.06
2023-03-29T01:04:24.838Z,83.11
2023-03-29T01:06:31.404Z,83.08
2023-03-29T01:08:38.701Z,83.04
2023-03-29T01:10:46.657Z,82.62
2023-03-29T01:12:53.802Z,82.64
2023-03-29T01:15:02.481Z,82.69
2023-03-29T01:17:07.989Z,82.42
2023-03-29T01:19:16.555Z,82.73
2023-03-29T01:21:27.818Z,82.26
2023-03-29T01:23:51.079Z,82.45
2023-03-29T01:26:02.951Z,81.50
2023-03-29T01:28:11.949Z,81.72
2023-03-29T01:30:19.462Z,81.53
2023-03-29T01:32:27.159Z,82.02
2023-03-29T01:34:36.616Z,82.13
2023-03-29T01:36:45.506Z,82.25
2023-03-29T01:38:54.473Z,81.61
2023-03-29T01:40:58.004Z,81.61
2023-03-29T01:43:12.563Z,81.55
2023-03-29T01:45:23.615Z,82.15
2023-03-29T01:47:33.885Z,81.67
2023-03-29T01:49:42.191Z,82.06
2023-03-29T01:51:53.980Z,81.51
2023-03-29T01:54:01.940Z,82.01
2023-03-29T01:56:09.610Z,81.90
2023-03-29T01:58:17.545Z,81.60
2023-03-29T02:00:25.843Z,81.49
2023-03-29T02:02:31.743Z,81.84
2023-03-29T02:04:39.047Z,81.83
2023-03-29T02:06:43.549Z,81.72
2023-03-29T02:08:48.466Z,81.76
2023-03-29T02:10:52.765Z,81.57
2023-03-29T02:12:56.801Z,81.89
2023-03-29T02:15:01.965Z,81.98
2023-03-29T02:17:18.225Z,81.74
2023-03-29T02:19:23.967Z,81.70
2023-03-29T02:21:31.506Z,81.67
2023-03-29T02:23:38.809Z,81.50
2023-03-29T02:25:43.398Z,81.49
2023-03-29T02:27:47.135Z,81.29
2023-03-29T02:29:50.539Z,81.69
2023-03-29T02:32:00.592Z,81.31
2023-03-29T02:34:08.749Z,81.26
2023-03-29T02:36:18.072Z,81.32
2023-03-29T02:38:25.509Z,81.29
2023-03-29T02:40:29.804Z,81.29
2023-03-29T02:42:33.222Z,81.16
2023-03-29T02:44:40.670Z,81.29
2023-03-29T02:46:44.501Z,81.20
2023-03-29T02:48:54.341Z,80.81
2023-03-29T02:51:03.001Z,81.23
2023-03-29T02:53:11.521Z,81.02
2023-03-29T02:55:20.271Z,80.77
2023-03-29T02:57:26.657Z,80.36
2023-03-29T02:59:31.498Z,80.65
2023-03-29T03:01:36.671Z,80.48
2023-03-29T03:03:41.213Z,80.40
2023-03-29T03:05:46.020Z,80.42
2023-03-29T03:07:49.379Z,80.20
2023-03-29T03:09:53.214Z,80.01
2023-03-29T03:11:56.769Z,79.88
2023-03-29T03:14:01.704Z,79.88
2023-03-29T03:16:06.058Z,79.72
2023-03-29T03:18:10.507Z,79.86
2023-03-29T03:20:14.610Z,79.72
2023-03-29T03:22:20.344Z,79.73
2023-03-29T03:24:23.713Z,79.93
2023-03-29T03:26:30.111Z,79.62
2023-03-29T03:28:34.249Z,79.66
2023-03-29T03:30:41.143Z,79.84
2023-03-29T03:32:54.801Z,79.93
2023-03-29T03:35:16.964Z,80.07
2023-03-29T03:37:22.525Z,79.80
2023-03-29T03:39:26.365Z,79.70
2023-03-29T03:41:30.750Z,79.63
2023-03-29T03:43:34.404Z,79.96
2023-03-29T03:45:37.877Z,79.65
2023-03-29T03:47:51.451Z,79.47
2023-03-29T03:50:13.774Z,79.62
2023-03-29T03:52:17.375Z,79.40
2023-03-29T03:54:22.066Z,79.38
2023-03-29T03:56:57.449Z,79.37
2023-03-29T03:59:12.513Z,79.38
2023-03-29T04:01:43.463Z,79.20
2023-03-29T04:03:53.849Z,79.08
2023-03-29T04:06:01.758Z,79.19
2023-03-29T04:08:14.276Z,79.03
2023-03-29T04:10:59.343Z,79.13
2023-03-29T04:13:08.497Z,79.31
2023-03-29T04:15:26.662Z,79.49
2023-03-29T04:17:39.014Z,79.42
2023-03-29T04:19:56.371Z,79.23
2023-03-29T04:22:00.407Z,79.22
2023-03-29T04:24:03.796Z,78.88
2023-03-29T04:26:12.054Z,78.75
2023-03-29T04:28:28.006Z,78.67
2023-03-29T04:30:52.282Z,78.63
2023-03-29T04:33:25.218Z,78.60
2023-03-29T04:35:35.635Z,78.52
2023-03-29T04:37:41.804Z,78.17
2023-03-29T04:39:49.965Z,78.41
2023-03-29T04:41:55.195Z,78.45
2023-03-29T04:44:03.538Z,78.25
2023-03-29T04:46:08.327Z,78.69
2023-03-29T04:48:43.917Z,78.78
2023-03-29T04:50:48.542Z,79.22
2023-03-29T04:52:54.756Z,79.31
2023-03-29T04:54:58.942Z,79.03
2023-03-29T04:57:17.019Z,79.24
2023-03-29T04:59:32.491Z,79.26
2023-03-29T05:01:37.519Z,79.29
2023-03-29T05:03:40.849Z,79.22
2023-03-29T05:05:56.345Z,79.42
2023-03-29T05:07:59.630Z,79.20
2023-03-29T05:10:10.917Z,79.40
2023-03-29T05:12:16.044Z,79.48
2023-03-29T05:14:29.565Z,79.69
2023-03-29T05:16:34.509Z,79.17
2023-03-29T05:18:38.088Z,79.32
2023-03-29T05:20:42.203Z,79.55
2023-03-29T05:22:48.598Z,79.18
2023-03-29T05:25:13.326Z,79.41
2023-03-29T05:27:20.990Z,79.46
2023-03-29T05:29:35.149Z,78.95
2023-03-29T05:31:56.879Z,78.72
2023-03-29T05:34:00.426Z,78.69
2023-03-29T05:36:08.677Z,78.76
2023-03-29T05:38:16.034Z,78.78
2023-03-29T05:40:20.045Z,78.82
2023-03-29T05:42:53.463Z,78.80
2023-03-29T05:44:56.852Z,78.73
2023-03-29T05:47:00.174Z,78.90
2023-03-29T05:49:04.251Z,78.78
2023-03-29T05:51:30.858Z,78.39
2023-03-29T05:53:35.137Z,78.50
2023-03-29T05:55:38.430Z,78.47
2023-03-29T05:57:41.970Z,78.26
2023-03-29T05:59:46.910Z,78.19
2023-03-29T06:01:51.942Z,78.22
2023-03-29T06:03:57.894Z,78.28
2023-03-29T06:06:09.515Z,78.36
2023-03-29T06:08:13.237Z,78.60
2023-03-29T06:10:43.351Z,80.39
2023-03-29T06:13:00.746Z,81.59
2023-03-29T06:15:07.293Z,79.50
2023-03-29T06:17:15.466Z,78.59
2023-03-29T06:19:19.316Z,77.88
2023-03-29T06:21:23.415Z,77.39
2023-03-29T06:23:27.026Z,77.59
2023-03-29T06:25:30.599Z,77.65
2023-03-29T06:27:34.785Z,77.40
2023-03-29T06:29:38.207Z,76.83
2023-03-29T06:31:43.965Z,77.06
2023-03-29T06:34:04.635Z,77.30
2023-03-29T06:36:30.584Z,76.84
2023-03-29T06:38:35.219Z,76.70
2023-03-29T06:40:39.153Z,77.03
2023-03-29T06:42:42.913Z,77.07
2023-03-29T06:45:10.427Z,76.88
2023-03-29T06:47:17.790Z,76.81
2023-03-29T06:49:21.680Z,76.69
2023-03-29T06:51:51.332Z,76.63
2023-03-29T06:53:55.491Z,76.38
2023-03-29T06:55:59.557Z,75.97
2023-03-29T06:58:28.786Z,75.72
2023-03-29T07:00:37.786Z,76.33
2023-03-29T07:02:52.204Z,75.99
2023-03-29T07:04:56.107Z,75.86
2023-03-29T07:07:06.011Z,75.84
2023-03-29T07:09:12.824Z,76.04
2023-03-29T07:11:36.357Z,75.82
2023-03-29T07:13:53.114Z,75.64
2023-03-29T07:15:57.449Z,75.69
2023-03-29T07:18:18.416Z,75.79
2023-03-29T07:20:22.924Z,75.80
2023-03-29T07:22:34.782Z,75.43
2023-03-29T07:24:38.404Z,75.63
2023-03-29T07:26:52.216Z,75.64
2023-03-29T07:29:00.959Z,75.94
2023-03-29T07:31:06.785Z,75.34
2023-03-29T07:33:15.144Z,75.28
2023-03-29T07:35:32.773Z,75.32
2023-03-29T07:37:37.905Z,75.21
2023-03-29T07:39:43.704Z,75.35
2023-03-29T07:42:07.529Z,75.04
2023-03-29T07:44:10.868Z,74.81
2023-03-29T07:46:15.279Z,75.48
2023-03-29T07:48:20.532Z,75.91
2023-03-29T07:50:36.278Z,76.10
2023-03-29T07:52:41.272Z,76.23
2023-03-29T07:54:45.941Z,75.87
2023-03-29T07:56:58.426Z,76.24
2023-03-29T07:59:19.551Z,75.95
2023-03-29T08:01:29.601Z,75.91
2023-03-29T08:03:58.613Z,75.86
2023-03-29T08:06:23.309Z,75.72
2023-03-29T08:08:26.744Z,76.00
2023-03-29T08:10:34.640Z,75.63
2023-03-29T08:13:02.462Z,75.65
2023-03-29T08:15:15.614Z,74.98
2023-03-29T08:17:19.513Z,75.31
2023-03-29T08:19:26.206Z,74.89
2023-03-29T08:21:51.937Z,74.54
2023-03-29T08:23:57.687Z,74.36
2023-03-29T08:26:08.578Z,74.41
2023-03-29T08:28:12.345Z,74.22
2023-03-29T08:30:21.810Z,73.92
2023-03-29T08:32:26.348Z,74.15
2023-03-29T08:34:31.648Z,74.34
2023-03-29T08:36:55.715Z,73.60
2023-03-29T08:39:14.181Z,73.73
2023-03-29T08:41:33.385Z,73.34
2023-03-29T08:43:50.855Z,72.84
2023-03-29T08:46:08.450Z,72.87
2023-03-29T08:48:21.641Z,72.44
2023-03-29T08:50:33.522Z,72.86
2023-03-29T08:52:41.318Z,72.44
2023-03-29T08:55:04.382Z,72.39
2023-03-29T08:57:17.005Z,71.84
2023-03-29T08:59:29.614Z,72.71
2023-03-29T09:01:36.801Z,72.26
2023-03-29T09:03:46.354Z,71.80
2023-03-29T09:06:00.194Z,72.25
2023-03-29T09:08:05.032Z,72.18
2023-03-29T09:10:15.370Z,72.11
2023-03-29T09:12:31.098Z,72.09
2023-03-29T09:14:47.532Z,72.55
2023-03-29T09:17:01.084Z,72.65
2023-03-29T09:19:16.683Z,72.21
2023-03-29T09:21:27.342Z,72.10
2023-03-29T09:24:02.142Z,72.51
2023-03-29T09:26:28.352Z,72.15
2023-03-29T09:29:02.739Z,71.87
2023-03-29T09:31:13.089Z,71.62
2023-03-29T09:33:25.068Z,71.79
2023-03-29T09:35:40.116Z,71.91
2023-03-29T09:37:43.568Z,71.49
2023-03-29T09:39:49.253Z,71.69
2023-03-29T09:42:00.985Z,71.80
2023-03-29T09:44:15.015Z,71.96
2023-03-29T09:46:35.309Z,71.90
2023-03-29T09:48:44.590Z,71.52
2023-03-29T09:50:51.591Z,71.43
2023-03-29T09:52:56.616Z,71.45
2023-03-29T09:55:04.003Z,71.07
2023-03-29T09:57:33.819Z,70.92
2023-03-29T09:59:37.879Z,71.04
2023-03-29T10:01:46.671Z,71.25
2023-03-29T10:03:53.203Z,71.05
2023-03-29T10:06:01.532Z,71.63
2023-03-29T10:08:19.585Z,71.21
2023-03-29T10:10:29.654Z,71.25
2023-03-29T10:12:34.516Z,71.08
2023-03-29T10:14:41.817Z,70.87
2023-03-29T10:16:46.299Z,70.71
2023-03-29T10:18:51.036Z,70.84
2023-03-29T10:21:00.364Z,71.10
2023-03-29T10:23:06.419Z,70.97
2023-03-29T10:25:14.946Z,70.44
2023-03-29T10:27:23.245Z,70.63
2023-03-29T10:29:27.753Z,70.69
2023-03-29T10:31:32.983Z,70.22
2023-03-29T10:33:37.176Z,70.51
2023-03-29T10:35:42.820Z,70.29
2023-03-29T10:37:51.181Z,70.64
2023-03-29T10:39:55.470Z,70.42
2023-03-29T10:42:00.975Z,70.26
2023-03-29T10:44:05.948Z,70.79
2023-03-29T10:46:13.208Z,70.48
2023-03-29T10:48:19.293Z,69.99
2023-03-29T10:50:22.595Z,70.03
2023-03-29T10:52:26.606Z,69.48
2023-03-29T10:54:31.037Z,69.41
2023-03-29T10:56:40.666Z,69.28
2023-03-29T10:58:57.777Z,68.69
2023-03-29T11:01:03.882Z,68.45
2023-03-29T11:03:23.354Z,68.62
2023-03-29T11:05:33.825Z,68.43
2023-03-29T11:07:44.256Z,68.51
2023-03-29T11:09:53.809Z,68.08
2023-03-29T11:12:15.489Z,67.68
2023-03-29T11:14:33.560Z,67.33
2023-03-29T11:16:47.042Z,67.44
2023-03-29T11:19:14.434Z,67.43
2023-03-29T11:21:30.622Z,68.09
2023-03-29T11:23:48.063Z,68.02
2023-03-29T11:26:02.345Z,68.38
2023-03-29T11:28:14.468Z,68.37
2023-03-29T11:30:23.941Z,68.22
2023-03-29T11:32:34.301Z,67.98
2023-03-29T11:34:53.880Z,68.51
2023-03-29T11:37:04.673Z,68.09
2023-03-29T11:39:16.622Z,68.63
2023-03-29T11:41:25.342Z,68.42
2023-03-29T11:43:34.293Z,67.85
2023-03-29T11:45:43.046Z,67.84
2023-03-29T11:47:50.767Z,67.63
2023-03-29T11:49:58.415Z,67.44
2023-03-29T11:52:07.125Z,67.55
2023-03-29T11:54:19.049Z,67.75
2023-03-29T11:56:29.215Z,66.99
2023-03-29T11:58:38.350Z,67.18
2023-03-29T12:00:47.240Z,67.20
2023-03-29T12:02:56.728Z,67.25
2023-03-29T12:05:05.474Z,66.96
2023-03-29T12:07:15.680Z,66.94
2023-03-29T12:09:28.463Z,66.50
2023-03-29T12:11:37.722Z,66.48
2023-03-29T12:13:46.360Z,66.42
2023-03-29T12:15:56.828Z,65.78
2023-03-29T12:18:08.322Z,65.96
2023-03-29T12:20:19.039Z,66.06
2023-03-29T12:22:26.418Z,66.12
2023-03-29T12:24:32.417Z,66.56
2023-03-29T12:26:54.702Z,66.33
2023-03-29T12:29:11.128Z,66.88
2023-03-29T12:31:21.239Z,66.61
2023-03-29T12:33:52.576Z,66.63
2023-03-29T12:36:32.555Z,66.69
2023-03-29T12:39:05.447Z,66.68
2023-03-29T12:41:28.926Z,66.40
2023-03-29T12:43:39.654Z,66.13
2023-03-29T12:46:18.207Z,66.21
2023-03-29T12:48:25.373Z,65.79
2023-03-29T12:50:37.160Z,65.61
2023-03-29T12:52:43.269Z,65.11
2023-03-29T12:54:54.896Z,64.47
2023-03-29T12:57:01.466Z,63.90
2023-03-29T12:59:18.431Z,64.02
2023-03-29T13:01:28.263Z,63.75
2023-03-29T13:03:42.465Z,63.12
2023-03-29T13:05:48.137Z,62.37
2023-03-29T13:07:52.638Z,61.62
2023-03-29T13:09:57.865Z,61.08
2023-03-29T13:12:07.788Z,60.50
2023-03-29T13:14:16.563Z,59.71
2023-03-29T13:16:22.756Z,59.14
2023-03-29T13:18:40.014Z,58.75
2023-03-29T13:20:54.146Z,58.17
2023-03-29T13:23:10.475Z,58.32
2023-03-29T13:25:33.698Z,59.83
2023-03-29T13:27:47.345Z,60.65
2023-03-29T13:30:15.636Z,60.84
2023-03-29T13:32:32.097Z,59.43
2023-03-29T13:34:45.161Z,59.13
2023-03-29T13:37:00.790Z,58.24
2023-03-29T13:39:07.880Z,57.97
2023-03-29T13:41:28.780Z,58.50
2023-03-29T13:43:36.008Z,59.37
2023-03-29T13:45:40.478Z,58.93
2023-03-29T13:47:58.327Z,57.88
2023-03-29T13:50:18.792Z,58.78
2023-03-29T13:52:27.904Z,59.03
2023-03-29T13:54:36.545Z,59.41
2023-03-29T13:56:51.353Z,58.88
2023-03-29T13:58:58.522Z,59.24
2023-03-29T14:01:08.230Z,59.24
2023-03-29T14:03:15.737Z,59.58
2023-03-29T14:05:22.682Z,60.00
2023-03-29T14:07:31.133Z,60.38
2023-03-29T14:09:41.144Z,60.77
2023-03-29T14:11:45.997Z,61.97
2023-03-29T14:13:52.376Z,62.09
2023-03-29T14:15:59.907Z,61.94
2023-03-29T14:18:04.222Z,61.89
2023-03-29T14:20:10.889Z,61.72
2023-03-29T14:22:16.822Z,62.07
2023-03-29T14:24:24.483Z,62.53
2023-03-29T14:26:31.934Z,62.82
2023-03-29T14:28:35.674Z,62.04
2023-03-29T14:30:39.107Z,62.11
2023-03-29T14:32:42.635Z,62.01
2023-03-29T14:34:49.167Z,62.15
2023-03-29T14:36:53.919Z,62.22
2023-03-29T14:38:59.562Z,61.99
2023-03-29T14:41:04.917Z,61.62
2023-03-29T14:43:11.053Z,61.69
2023-03-29T14:45:17.320Z,61.43
2023-03-29T14:47:27.695Z,61.37
2023-03-29T14:49:32.589Z,61.08
2023-03-29T14:51:36.890Z,61.51
2023-03-29T14:53:41.615Z,61.48
2023-03-29T14:55:49.089Z,61.53
2023-03-29T14:57:55.863Z,61.42
2023-03-29T15:00:08.038Z,61.93
2023-03-29T15:02:23.883Z,61.47
2023-03-29T15:04:33.962Z,61.25
2023-03-29T15:06:39.977Z,61.09
2023-03-29T15:08:57.688Z,60.93
2023-03-29T15:11:15.231Z,61.01
2023-03-29T15:13:24.296Z,60.94
2023-03-29T15:15:27.822Z,60.76
2023-03-29T15:17:47.558Z,60.75
2023-03-29T15:19:58.259Z,60.86
2023-03-29T15:22:10.039Z,61.27
2023-03-29T15:24:22.027Z,60.49
2023-03-29T15:26:30.962Z,60.61
2023-03-29T15:28:46.738Z,60.40
2023-03-29T15:31:04.607Z,60.93
2023-03-29T15:33:17.759Z,61.02
2023-03-29T15:35:25.725Z,60.79
2023-03-29T15:37:29.536Z,61.22
2023-03-29T15:39:33.588Z,60.83
2023-03-29T15:41:36.994Z,60.86
2023-03-29T15:43:42.320Z,61.01
2023-03-29T15:45:47.353Z,60.90
2023-03-29T15:47:51.567Z,61.14
2023-03-29T15:49:54.824Z,61.31
2023-03-29T15:51:58.445Z,61.61
2023-03-29T15:54:01.775Z,61.40
2023-03-29T15:56:08.198Z,61.13
2023-03-29T15:58:14.934Z,62.16
2023-03-29T16:00:22.347Z,62.67
2023-03-29T16:02:26.130Z,62.86
2023-03-29T16:04:29.599Z,62.08
2023-03-29T16:06:34.450Z,61.89
2023-03-29T16:08:37.818Z,61.53
2023-03-29T16:10:43.727Z,62.14
2023-03-29T16:12:47.052Z,62.01
2023-03-29T16:14:50.333Z,61.99
2023-03-29T16:16:58.866Z,62.59
2023-03-29T16:19:02.360Z,62.23
2023-03-29T16:21:06.325Z,61.96
2023-03-29T16:23:09.816Z,62.23
2023-03-29T16:25:14.755Z,62.15
2023-03-29T16:27:18.865Z,62.27
2023-03-29T16:29:22.291Z,62.11
2023-03-29T16:31:26.985Z,61.91
2023-03-29T16:33:32.113Z,61.98
2023-03-29T16:35:37.828Z,62.00
2023-03-29T16:37:41.312Z,61.95
2023-03-29T16:39:44.708Z,62.26
2023-03-29T16:41:50.040Z,62.56
2023-03-29T16:43:53.731Z,62.85
2023-03-29T16:45:57.755Z,62.93
2023-03-29T16:48:01.693Z,63.28
2023-03-29T16:50:08.134Z,63.58
2023-03-29T16:52:11.488Z,63.76
2023-03-29T16:54:15.512Z,64.41
2023-03-29T16:56:21.942Z,64.57
2023-03-29T16:58:25.604Z,64.67
2023-03-29T17:00:29.143Z,65.08
2023-03-29T17:02:32.518Z,65.37
2023-03-29T17:04:36.042Z,65.76
2023-03-29T17:06:41.938Z,65.96
2023-03-29T17:08:45.292Z,66.24
2023-03-29T17:10:52.777Z,66.38
2023-03-29T17:12:56.215Z,66.67
2023-03-29T17:14:59.717Z,67.07
2023-03-29T17:17:03.054Z,67.13
2023-03-29T17:19:06.447Z,67.63
2023-03-29T17:21:09.946Z,67.59
2023-03-29T17:23:14.663Z,68.04
2023-03-29T17:25:18.254Z,68.31
2023-03-29T17:27:21.648Z,69.10
2023-03-29T17:29:25.298Z,69.05
2023-03-29T17:31:28.633Z,69.80
2023-03-29T17:33:32.272Z,69.55
2023-03-29T17:35:35.844Z,70.63
2023-03-29T17:37:39.400Z,70.72
2023-03-29T17:39:46.006Z,70.82
2023-03-29T17:41:49.567Z,71.11
2023-03-29T17:43:52.954Z,71.66
2023-03-29T17:45:56.621Z,71.82
2023-03-29T17:48:00.250Z,72.80
2023-03-29T17:50:06.110Z,72.75
2023-03-29T17:52:09.512Z,72.97
2023-03-29T17:54:13.131Z,73.43
2023-03-29T17:56:17.810Z,73.52
2023-03-29T17:58:21.370Z,73.76
2023-03-29T18:00:24.766Z,74.16
2023-03-29T18:02:28.274Z,73.77
2023-03-29T18:04:32.179Z,74.00
2023-03-29T18:06:35.915Z,74.03
2023-03-29T18:08:40.643Z,74.65
2023-03-29T18:10:44.166Z,74.44
2023-03-29T18:12:49.165Z,74.43
2023-03-29T18:14:53.206Z,74.58
2023-03-29T18:16:57.086Z,74.60
2023-03-29T18:19:00.550Z,75.00
2023-03-29T18:21:04.201Z,75.15
2023-03-29T18:23:07.575Z,75.39
2023-03-29T18:25:11.460Z,75.12
2023-03-29T18:27:15.748Z,75.31
2023-03-29T18:29:20.944Z,75.30
2023-03-29T18:31:24.347Z,75.50
2023-03-29T18:33:30.154Z,75.40
2023-03-29T18:35:33.566Z,75.34
2023-03-29T18:37:37.232Z,75.67
2023-03-29T18:39:41.265Z,76.04
2023-03-29T18:41:44.657Z,75.99
2023-03-29T18:43:48.291Z,76.26
2023-03-29T18:45:53.001Z,75.90
2023-03-29T18:47:56.638Z,76.07
2023-03-29T18:50:00.329Z,76.17
2023-03-29T18:52:04.690Z,75.95
2023-03-29T18:54:08.940Z,75.94
2023-03-29T18:56:12.293Z,75.88
2023-03-29T18:58:17.697Z,76.12
2023-03-29T19:00:21.041Z,75.70
2023-03-29T19:02:25.837Z,75.40
2023-03-29T19:04:29.895Z,75.40
2023-03-29T19:06:33.358Z,75.68
2023-03-29T19:08:39.689Z,75.48
2023-03-29T19:10:43.015Z,75.27
2023-03-29T19:12:46.492Z,75.39
2023-03-29T19:14:50.053Z,75.45
2023-03-29T19:16:53.728Z,75.73
2023-03-29T19:18:58.498Z,75.75
2023-03-29T19:21:02.527Z,75.95
2023-03-29T19:23:06.495Z,75.97
2023-03-29T19:25:10.991Z,76.44
2023-03-29T19:27:14.657Z,76.28
2023-03-29T19:29:18.292Z,75.79
2023-03-29T19:31:22.564Z,76.40
2023-03-29T19:33:26.622Z,76.22
2023-03-29T19:35:31.325Z,76.50
2023-03-29T19:37:34.737Z,76.61
2023-03-29T19:39:39.892Z,76.70
2023-03-29T19:41:43.219Z,76.49
2023-03-29T19:43:46.607Z,76.66
2023-03-29T19:45:51.499Z,76.63
2023-03-29T19:47:55.551Z,76.35
2023-03-29T19:49:59.143Z,76.66
2023-03-29T19:52:04.066Z,76.75
2023-03-29T19:54:07.957Z,77.30
2023-03-29T19:56:13.186Z,77.27
2023-03-29T19:58:16.673Z,77.05
2023-03-29T20:00:24.343Z,77.08
2023-03-29T20:02:27.885Z,76.65
2023-03-29T20:04:33.214Z,76.88
2023-03-29T20:06:36.973Z,76.90
2023-03-29T20:08:41.735Z,77.00
2023-03-29T20:10:45.189Z,76.39
2023-03-29T20:12:48.649Z,76.52
2023-03-29T20:14:54.260Z,76.53
2023-03-29T20:16:57.751Z,76.41
2023-03-29T20:19:01.990Z,76.51
2023-03-29T20:21:05.574Z,76.90
2023-03-29T20:23:09.045Z,77.03
2023-03-29T20:25:13.951Z,76.80
2023-03-29T20:27:17.287Z,76.94
2023-03-29T20:29:20.622Z,77.30
2023-03-29T20:31:24.321Z,77.06
2023-03-29T20:33:27.673Z,77.23
2023-03-29T20:35:31.198Z,77.37
2023-03-29T20:37:34.592Z,77.17
2023-03-29T20:39:38.194Z,77.35
2023-03-29T20:41:47.317Z,77.24
2023-03-29T20:43:58.374Z,77.40
2023-03-29T20:46:02.018Z,77.81
2023-03-29T20:48:05.584Z,77.64
2023-03-29T20:50:10.496Z,77.66
2023-03-29T20:52:16.321Z,77.53
2023-03-29T20:54:19.643Z,77.55
2023-03-29T20:56:26.070Z,77.52
2023-03-29T20:58:32.007Z,77.54
2023-03-29T21:00:37.595Z,77.37
2023-03-29T21:02:41.052Z,77.38
2023-03-29T21:04:44.809Z,77.14
2023-03-29T21:06:51.869Z,77.20
2023-03-29T21:08:55.253Z,77.43
2023-03-29T21:10:58.630Z,77.25
2023-03-29T21:13:02.644Z,77.10
2023-03-29T21:15:09.422Z,77.01
2023-03-29T21:17:13.229Z,77.20
2023-03-29T21:19:19.204Z,77.07
2023-03-29T21:21:23.042Z,77.19
2023-03-29T21:23:26.335Z,77.15
2023-03-29T21:25:29.852Z,77.09
2023-03-29T21:27:33.233Z,76.97
2023-03-29T21:29:36.618Z,77.05
2023-03-29T21:31:41.805Z,76.63
2023-03-29T21:33:45.156Z,76.59
2023-03-29T21:35:49.137Z,76.63
2023-03-29T21:37:52.617Z,76.39
2023-03-29T21:39:55.926Z,76.59
2023-03-29T21:42:01.824Z,76.52
2023-03-29T21:44:05.276Z,76.47
2023-03-29T21:46:08.740Z,76.46
2023-03-29T21:48:13.647Z,76.44
2023-03-29T21:50:17.109Z,76.53
2023-03-29T21:52:21.454Z,76.52
2023-03-29T21:54:24.798Z,76.24
2023-03-29T21:56:28.904Z,75.99
2023-03-29T21:58:32.288Z,75.89
2023-03-29T22:00:35.788Z,75.75
2023-03-29T22:02:40.277Z,75.85
2023-03-29T22:04:45.207Z,75.55
2023-03-29T22:06:49.347Z,75.20
2023-03-29T22:08:53.098Z,74.94
2023-03-29T22:10:57.085Z,75.15
2023-03-29T22:13:01.220Z,74.97
2023-03-29T22:15:07.643Z,74.77
2023-03-29T22:17:11.979Z,74.75
2023-03-29T22:19:15.334Z,74.57
2023-03-29T22:21:23.385Z,74.41
2023-03-29T22:23:26.683Z,74.88
2023-03-29T22:25:31.915Z,74.49
2023-03-29T22:27:35.397Z,74.23
2023-03-29T22:29:38.921Z,74.15
2023-03-29T22:31:42.342Z,74.07
2023-03-29T22:33:46.600Z,74.30
2023-03-29T22:35:50.179Z,74.40
2023-03-29T22:37:54.943Z,74.02
2023-03-29T22:39:58.346Z,74.11
2023-03-29T22:42:01.911Z,74.09
2023-03-29T22:44:08.217Z,74.26
2023-03-29T22:46:13.711Z,74.12
2023-03-29T22:48:17.484Z,74.16
2023-03-29T22:50:20.834Z,74.27
2023-03-29T22:52:25.331Z,73.95
2023-03-29T22:54:30.682Z,74.58
2023-03-29T22:56:34.000Z,74.70
2023-03-29T22:58:37.761Z,74.53
2023-03-29T23:00:41.163Z,74.37
2023-03-29T23:02:44.518Z,74.43
2023-03-29T23:04:47.986Z,74.33
2023-03-29T23:06:51.387Z,74.32
2023-03-29T23:08:54.973Z,74.45
2023-03-29T23:10:59.867Z,74.67
2023-03-29T23:13:08.749Z,74.47
2023-03-29T23:15:13.402Z,74.62
2023-03-29T23:17:19.219Z,74.74
2023-03-29T23:19:22.940Z,74.86
2023-03-29T23:21:26.256Z,74.70
2023-03-29T23:23:29.677Z,74.55
2023-03-29T23:25:33.382Z,74.33
2023-03-29T23:27:38.254Z,74.50
2023-03-29T23:29:42.285Z,74.51
2023-03-29T23:31:47.726Z,74.28
2023-03-29T23:33:52.976Z,74.25
2023-03-29T23:35:56.330Z,74.10
2023-03-29T23:38:00.745Z,74.56
2023-03-29T23:40:09.023Z,73.98
2023-03-29T23:42:12.746Z,73.90
2023-03-29T23:44:17.771Z,73.60
2023-03-29T23:46:21.391Z,73.39
2023-03-29T23:48:25.855Z,73.26
2023-03-29T23:50:29.958Z,73.23
2023-03-29T23:52:34.279Z,73.09
2023-03-29T23:54:38.475Z,73.13
2023-03-29T23:56:41.930Z,73.05
2023-03-29T23:58:45.557Z,73.20
